sensor_id;sensor_type;location;lat;lon;timestamp;pressure;altitude;pressure_sealevel;temperature;humidity
59757;BME280;45631;51.962;5.974;2023-12-20T00:01:10;101356.63;;;5.12;100.00
59757;BME280;45631;51.962;5.974;2023-12-20T00:03:40;101360.91;;;5.14;100.00
59757;BME280;45631;51.962;5.974;2023-12-20T00:06:09;101346.16;;;5.13;100.00
59757;BME280;45631;51.962;5.974;2023-12-20T00:08:37;101348.88;;;5.10;100.00
59757;BME280;45631;51.962;5.974;2023-12-20T00:11:05;101342.00;;;5.07;100.00
59757;BME280;45631;51.962;5.974;2023-12-20T00:13:33;101349.91;;;5.04;100.00
59757;BME280;45631;51.962;5.974;2023-12-20T00:16:02;101339.53;;;5.03;100.00
59757;BME280;45631;51.962;5.974;2023-12-20T00:18:33;101353.50;;;5.02;100.00
59757;BME280;45631;51.962;5.974;2023-12-20T00:21:03;101342.25;;;5.00;100.00
59757;BME280;45631;51.962;5.974;2023-12-20T00:23:34;101338.81;;;4.99;100.00
59757;BME280;45631;51.962;5.974;2023-12-20T00:26:02;101348.47;;;4.96;100.00
59757;BME280;45631;51.962;5.974;2023-12-20T00:28:31;101348.47;;;4.96;100.00
59757;BME280;45631;51.962;5.974;2023-12-20T00:30:59;101338.16;;;4.93;100.00
59757;BME280;45631;51.962;5.974;2023-12-20T00:33:27;101335.50;;;4.94;100.00
59757;BME280;45631;51.962;5.974;2023-12-20T00:35:56;101333.84;;;4.91;100.00
59757;BME280;45631;51.962;5.974;2023-12-20T00:38:25;101345.28;;;4.87;100.00
59757;BME280;45631;51.962;5.974;2023-12-20T00:40:53;101326.06;;;4.90;100.00
59757;BME280;45631;51.962;5.974;2023-12-20T00:43:21;101331.34;;;4.88;100.00
59757;BME280;45631;51.962;5.974;2023-12-20T00:45:50;101345.28;;;4.87;100.00
59757;BME280;45631;51.962;5.974;2023-12-20T00:48:18;101347.19;;;4.82;100.00
59757;BME280;45631;51.962;5.974;2023-12-20T00:50:47;101346.44;;;4.79;100.00
59757;BME280;45631;51.962;5.974;2023-12-20T00:53:15;101349.88;;;4.79;100.00
59757;BME280;45631;51.962;5.974;2023-12-20T00:55:45;101340.41;;;4.77;100.00
59757;BME280;45631;51.962;5.974;2023-12-20T00:58:13;101343.91;;;4.76;100.00
59757;BME280;45631;51.962;5.974;2023-12-20T01:00:42;101341.38;;;4.74;100.00
59757;BME280;45631;51.962;5.974;2023-12-20T01:03:11;101338.03;;;4.70;100.00
59757;BME280;45631;51.962;5.974;2023-12-20T01:05:39;101339.09;;;4.63;100.00
59757;BME280;45631;51.962;5.974;2023-12-20T01:08:07;101340.06;;;4.61;100.00
59757;BME280;45631;51.962;5.974;2023-12-20T01:10:37;101334.09;;;4.57;100.00
59757;BME280;45631;51.962;5.974;2023-12-20T01:13:07;101341.22;;;4.52;100.00
59757;BME280;45631;51.962;5.974;2023-12-20T01:15:35;101347.31;;;4.51;100.00
59757;BME280;45631;51.962;5.974;2023-12-20T01:18:04;101331.69;;;4.51;100.00
59757;BME280;45631;51.962;5.974;2023-12-20T01:20:32;101332.63;;;4.48;100.00
59757;BME280;45631;51.962;5.974;2023-12-20T01:23:00;101326.63;;;4.46;100.00
59757;BME280;45631;51.962;5.974;2023-12-20T01:25:28;101334.44;;;4.46;100.00
59757;BME280;45631;51.962;5.974;2023-12-20T01:27:57;101337.19;;;4.42;100.00
59757;BME280;45631;51.962;5.974;2023-12-20T01:30:26;101337.22;;;4.40;100.00
59757;BME280;45631;51.962;5.974;2023-12-20T01:32:55;101331.28;;;4.36;100.00
59757;BME280;45631;51.962;5.974;2023-12-20T01:35:26;101331.31;;;4.35;100.00
59757;BME280;45631;51.962;5.974;2023-12-20T01:37:54;101333.06;;;4.34;100.00
59757;BME280;45631;51.962;5.974;2023-12-20T01:40:23;101339.22;;;4.32;100.00
59757;BME280;45631;51.962;5.974;2023-12-20T01:42:58;101346.25;;;4.30;100.00
59757;BME280;45631;51.962;5.974;2023-12-20T01:45:28;101331.63;;;4.26;100.00
59757;BME280;45631;51.962;5.974;2023-12-20T01:47:57;101330.69;;;4.27;100.00
59757;BME280;45631;51.962;5.974;2023-12-20T01:50:27;101333.47;;;4.22;100.00
59757;BME280;45631;51.962;5.974;2023-12-20T01:52:56;101336.91;;;4.22;100.00
59757;BME280;45631;51.962;5.974;2023-12-20T01:55:27;101346.53;;;4.20;100.00
59757;BME280;45631;51.962;5.974;2023-12-20T01:57:58;101344.88;;;4.18;100.00
59757;BME280;45631;51.962;5.974;2023-12-20T02:00:29;101346.66;;;4.16;100.00
59757;BME280;45631;51.962;5.974;2023-12-20T02:03:01;101349.25;;;4.16;100.00
59757;BME280;45631;51.962;5.974;2023-12-20T02:05:29;101346.66;;;4.16;100.00
59757;BME280;45631;51.962;5.974;2023-12-20T02:07:57;101343.25;;;4.14;100.00
59757;BME280;45631;51.962;5.974;2023-12-20T02:10:26;101340.66;;;4.14;100.00
59757;BME280;45631;51.962;5.974;2023-12-20T02:12:55;101337.22;;;4.13;100.00
59757;BME280;45631;51.962;5.974;2023-12-20T02:15:24;101339.81;;;4.13;100.00
59757;BME280;45631;51.962;5.974;2023-12-20T02:17:54;101350.19;;;4.15;100.00
59757;BME280;45631;51.962;5.974;2023-12-20T02:20:22;101345.03;;;4.13;100.00
59757;BME280;45631;51.962;5.974;2023-12-20T02:22:52;101353.72;;;4.12;100.00
59757;BME280;45631;51.962;5.974;2023-12-20T02:25:20;101352.81;;;4.13;100.00
59757;BME280;45631;51.962;5.974;2023-12-20T02:27:49;101345.97;;;4.11;100.00
59757;BME280;45631;51.962;5.974;2023-12-20T02:30:18;101347.63;;;4.12;100.00
59757;BME280;45631;51.962;5.974;2023-12-20T02:32:50;101342.44;;;4.12;100.00
59757;BME280;45631;51.962;5.974;2023-12-20T02:35:19;101338.94;;;4.13;100.00
59757;BME280;45631;51.962;5.974;2023-12-20T02:37:47;101344.19;;;4.11;100.00
59757;BME280;45631;51.962;5.974;2023-12-20T02:40:17;101335.59;;;4.09;100.00
59757;BME280;45631;51.962;5.974;2023-12-20T02:42:45;101335.59;;;4.09;100.00
59757;BME280;45631;51.962;5.974;2023-12-20T02:45:14;101333.72;;;4.13;100.00
59757;BME280;45631;51.962;5.974;2023-12-20T02:47:42;101326.88;;;4.10;100.00
59757;BME280;45631;51.962;5.974;2023-12-20T02:50:11;101323.38;;;4.11;100.00
59757;BME280;45631;51.962;5.974;2023-12-20T02:52:39;101314.72;;;4.11;100.00
59757;BME280;45631;51.962;5.974;2023-12-20T02:55:08;101314.56;;;4.15;100.00
59757;BME280;45631;51.962;5.974;2023-12-20T02:57:37;101311.84;;;4.18;100.00
59757;BME280;45631;51.962;5.974;2023-12-20T03:00:09;101310.97;;;4.19;100.00
59757;BME280;45631;51.962;5.974;2023-12-20T03:02:38;101298.81;;;4.20;100.00
59757;BME280;45631;51.962;5.974;2023-12-20T03:05:07;101309.97;;;4.23;100.00
59757;BME280;45631;51.962;5.974;2023-12-20T03:07:36;101302.16;;;4.23;100.00
59757;BME280;45631;51.962;5.974;2023-12-20T03:10:06;101300.16;;;4.32;100.00
59757;BME280;45631;51.962;5.974;2023-12-20T03:12:50;101307.19;;;4.30;100.00
59757;BME280;45631;51.962;5.974;2023-12-20T03:15:20;101302.78;;;4.32;100.00
59757;BME280;45631;51.962;5.974;2023-12-20T03:17:48;101295.72;;;4.35;100.00
59757;BME280;45631;51.962;5.974;2023-12-20T03:20:17;101294.84;;;4.35;100.00
59757;BME280;45631;51.962;5.974;2023-12-20T03:22:45;101287.09;;;4.33;100.00
59757;BME280;45631;51.962;5.974;2023-12-20T03:25:13;101294.91;;;4.33;100.00
59757;BME280;45631;51.962;5.974;2023-12-20T03:27:42;101286.31;;;4.31;100.00
59757;BME280;45631;51.962;5.974;2023-12-20T03:30:12;101288.84;;;4.33;100.00
59757;BME280;45631;51.962;5.974;2023-12-20T03:32:41;101288.03;;;4.31;100.00
59757;BME280;45631;51.962;5.974;2023-12-20T03:35:09;101285.53;;;4.28;100.00
59757;BME280;45631;51.962;5.974;2023-12-20T03:37:37;101286.53;;;4.23;100.00
59757;BME280;45631;51.962;5.974;2023-12-20T03:40:06;101289.91;;;4.27;100.00
59757;BME280;45631;51.962;5.974;2023-12-20T03:42:34;101284.88;;;4.21;100.00
59757;BME280;45631;51.962;5.974;2023-12-20T03:45:03;101287.53;;;4.19;100.00
59757;BME280;45631;51.962;5.974;2023-12-20T03:47:33;101290.25;;;4.16;100.00
59757;BME280;45631;51.962;5.974;2023-12-20T03:50:01;101285.13;;;4.13;100.00
59757;BME280;45631;51.962;5.974;2023-12-20T03:52:29;101286.91;;;4.11;100.00
59757;BME280;45631;51.962;5.974;2023-12-20T03:54:57;101286.09;;;4.11;100.00
59757;BME280;45631;51.962;5.974;2023-12-20T03:57:26;101286.13;;;4.09;100.00
59757;BME280;45631;51.962;5.974;2023-12-20T03:59:54;101285.22;;;4.10;100.00
59757;BME280;45631;51.962;5.974;2023-12-20T04:02:22;101286.13;;;4.09;100.00
59757;BME280;45631;51.962;5.974;2023-12-20T04:04:52;101280.09;;;4.07;100.00
59757;BME280;45631;51.962;5.974;2023-12-20T04:07:22;101286.03;;;4.12;100.00
59757;BME280;45631;51.962;5.974;2023-12-20T04:09:51;101291.28;;;4.11;100.00
59757;BME280;45631;51.962;5.974;2023-12-20T04:12:19;101285.22;;;4.10;100.00
59757;BME280;45631;51.962;5.974;2023-12-20T04:14:47;101286.03;;;4.12;100.00
59757;BME280;45631;51.962;5.974;2023-12-20T04:17:16;101281.78;;;4.10;100.00
59757;BME280;45631;51.962;5.974;2023-12-20T04:19:44;101282.56;;;4.12;100.00
59757;BME280;45631;51.962;5.974;2023-12-20T04:22:14;101280.72;;;4.15;100.00
59757;BME280;45631;51.962;5.974;2023-12-20T04:24:43;101292.03;;;4.14;100.00
59757;BME280;45631;51.962;5.974;2023-12-20T04:27:11;101294.69;;;4.13;100.00
59757;BME280;45631;51.962;5.974;2023-12-20T04:29:39;101283.44;;;4.12;100.00
59757;BME280;45631;51.962;5.974;2023-12-20T04:32:08;101279.94;;;4.13;100.00
59757;BME280;45631;51.962;5.974;2023-12-20T04:34:38;101284.22;;;4.14;100.00
59757;BME280;45631;51.962;5.974;2023-12-20T04:37:07;101280.78;;;4.14;100.00
59757;BME280;45631;51.962;5.974;2023-12-20T04:39:36;101284.16;;;4.16;100.00
59757;BME280;45631;51.962;5.974;2023-12-20T04:42:05;101296.28;;;4.17;100.00
59757;BME280;45631;51.962;5.974;2023-12-20T04:44:33;101283.38;;;4.14;100.00
59757;BME280;45631;51.962;5.974;2023-12-20T04:47:01;101285.94;;;4.15;100.00
59757;BME280;45631;51.962;5.974;2023-12-20T04:49:29;101284.16;;;4.16;100.00
59757;BME280;45631;51.962;5.974;2023-12-20T04:51:58;101291.13;;;4.15;100.00
59757;BME280;45631;51.962;5.974;2023-12-20T04:54:26;101280.72;;;4.15;100.00
59757;BME280;45631;51.962;5.974;2023-12-20T04:56:55;101286.69;;;4.19;100.00
59757;BME280;45631;51.962;5.974;2023-12-20T04:59:23;101288.34;;;4.21;100.00
59757;BME280;45631;51.962;5.974;2023-12-20T05:01:52;101280.44;;;4.25;100.00
59757;BME280;45631;51.962;5.974;2023-12-20T05:04:20;101279.63;;;4.22;100.00
59757;BME280;45631;51.962;5.974;2023-12-20T05:06:48;101283.03;;;4.25;100.00
59757;BME280;45631;51.962;5.974;2023-12-20T05:09:17;101275.94;;;4.30;100.00
59757;BME280;45631;51.962;5.974;2023-12-20T05:11:45;101274.19;;;4.30;100.00
59757;BME280;45631;51.962;5.974;2023-12-20T05:14:15;101262.00;;;4.31;100.00
59757;BME280;45631;51.962;5.974;2023-12-20T05:16:43;101257.50;;;4.36;100.00
59757;BME280;45631;51.962;5.974;2023-12-20T05:19:15;101250.50;;;4.38;100.00
59757;BME280;45631;51.962;5.974;2023-12-20T05:21:43;101250.50;;;4.38;100.00
59757;BME280;45631;51.962;5.974;2023-12-20T05:24:11;101250.34;;;4.43;100.00
59757;BME280;45631;51.962;5.974;2023-12-20T05:26:39;101249.38;;;4.45;100.00
59757;BME280;45631;51.962;5.974;2023-12-20T05:29:08;101245.88;;;4.46;100.00
59757;BME280;45631;51.962;5.974;2023-12-20T05:31:37;101246.72;;;4.47;100.00
59757;BME280;45631;51.962;5.974;2023-12-20T05:34:05;101254.41;;;4.51;100.00
59757;BME280;45631;51.962;5.974;2023-12-20T05:36:34;101253.41;;;4.55;100.00
59757;BME280;45631;51.962;5.974;2023-12-20T05:39:04;101250.81;;;4.55;100.00
59757;BME280;45631;51.962;5.974;2023-12-20T05:41:34;101263.72;;;4.59;100.00
59757;BME280;45631;51.962;5.974;2023-12-20T05:44:03;101252.19;;;4.66;100.00
59757;BME280;45631;51.962;5.974;2023-12-20T05:46:31;101267.75;;;4.67;100.00
59757;BME280;45631;51.962;5.974;2023-12-20T05:49:01;101263.31;;;4.71;100.00
59757;BME280;45631;51.962;5.974;2023-12-20T05:51:30;101267.56;;;4.73;100.00
59757;BME280;45631;51.962;5.974;2023-12-20T05:53:58;101264.00;;;4.76;100.00
59757;BME280;45631;51.962;5.974;2023-12-20T05:56:26;101266.38;;;4.82;100.00
59757;BME280;45631;51.962;5.974;2023-12-20T05:58:57;101269.81;;;4.84;100.00
59757;BME280;45631;51.962;5.974;2023-12-20T06:01:25;101272.09;;;4.94;100.00
59757;BME280;45631;51.962;5.974;2023-12-20T06:03:54;101279.09;;;4.91;100.00
59757;BME280;45631;51.962;5.974;2023-12-20T06:06:24;101272.94;;;4.94;100.00
59757;BME280;45631;51.962;5.974;2023-12-20T06:08:52;101280.59;;;4.99;100.00
59757;BME280;45631;51.962;5.974;2023-12-20T06:11:20;101277.91;;;5.00;100.00
59757;BME280;45631;51.962;5.974;2023-12-20T06:13:49;101272.69;;;5.02;100.00
59757;BME280;45631;51.962;5.974;2023-12-20T06:16:19;101269.91;;;5.06;100.00
59757;BME280;45631;51.962;5.974;2023-12-20T06:18:47;101270.53;;;5.13;100.00
59757;BME280;45631;51.962;5.974;2023-12-20T06:21:15;101267.94;;;5.13;100.00
59757;BME280;45631;51.962;5.974;2023-12-20T06:23:45;101272.31;;;5.13;100.00
59757;BME280;45631;51.962;5.974;2023-12-20T06:26:13;101267.81;;;5.16;100.00
59757;BME280;45631;51.962;5.974;2023-12-20T06:28:41;101269.41;;;5.20;100.00
59757;BME280;45631;51.962;5.974;2023-12-20T06:31:09;101269.28;;;5.23;100.00
59757;BME280;45631;51.962;5.974;2023-12-20T06:33:38;101269.25;;;5.25;100.00
59757;BME280;45631;51.962;5.974;2023-12-20T06:36:08;101271.75;;;5.28;100.00
59757;BME280;45631;51.962;5.974;2023-12-20T06:38:37;101263.09;;;5.26;100.00
59757;BME280;45631;51.962;5.974;2023-12-20T06:41:07;101258.84;;;5.23;100.00
59757;BME280;45631;51.962;5.974;2023-12-20T06:43:35;101262.28;;;5.25;100.00
59757;BME280;45631;51.962;5.974;2023-12-20T06:46:15;101269.91;;;5.30;100.00
59757;BME280;45631;51.962;5.974;2023-12-20T06:48:44;101258.59;;;5.31;100.00
59757;BME280;45631;51.962;5.974;2023-12-20T06:51:15;101257.75;;;5.31;100.00
59757;BME280;45631;51.962;5.974;2023-12-20T06:53:43;101254.25;;;5.32;100.00
59757;BME280;45631;51.962;5.974;2023-12-20T06:56:13;101257.69;;;5.32;100.00
59757;BME280;45631;51.962;5.974;2023-12-20T06:58:45;101257.75;;;5.31;100.00
59757;BME280;45631;51.962;5.974;2023-12-20T07:01:13;101262.00;;;5.33;100.00
59757;BME280;45631;51.962;5.974;2023-12-20T07:03:42;101247.13;;;5.35;100.00
59757;BME280;45631;51.962;5.974;2023-12-20T07:06:10;101254.91;;;5.37;100.00
59757;BME280;45631;51.962;5.974;2023-12-20T07:08:39;101245.41;;;5.34;100.00
59757;BME280;45631;51.962;5.974;2023-12-20T07:11:08;101248.91;;;5.35;100.00
59757;BME280;45631;51.962;5.974;2023-12-20T07:13:38;101248.03;;;5.34;100.00
59757;BME280;45631;51.962;5.974;2023-12-20T07:16:06;101241.06;;;5.35;100.00
59757;BME280;45631;51.962;5.974;2023-12-20T07:18:34;101242.78;;;5.36;100.00
59757;BME280;45631;51.962;5.974;2023-12-20T07:21:03;101246.16;;;5.38;100.00
59757;BME280;45631;51.962;5.974;2023-12-20T07:23:31;101246.22;;;5.36;100.00
59757;BME280;45631;51.962;5.974;2023-12-20T07:25:59;101250.53;;;5.37;100.00
59757;BME280;45631;51.962;5.974;2023-12-20T07:28:27;101258.25;;;5.40;100.00
59757;BME280;45631;51.962;5.974;2023-12-20T07:30:57;101246.97;;;5.40;100.00
59757;BME280;45631;51.962;5.974;2023-12-20T07:33:25;101253.88;;;5.41;100.00
59757;BME280;45631;51.962;5.974;2023-12-20T07:35:56;101253.81;;;5.42;100.00
59757;BME280;45631;51.962;5.974;2023-12-20T07:38:24;101259.09;;;5.41;100.00
59757;BME280;45631;51.962;5.974;2023-12-20T07:40:52;101247.75;;;5.42;100.00
59757;BME280;45631;51.962;5.974;2023-12-20T07:43:23;101246.91;;;5.41;100.00
59757;BME280;45631;51.962;5.974;2023-12-20T07:45:51;101248.59;;;5.42;100.00
59757;BME280;45631;51.962;5.974;2023-12-20T07:48:21;101248.44;;;5.47;100.00
59757;BME280;45631;51.962;5.974;2023-12-20T07:50:49;101255.47;;;5.45;100.00
59757;BME280;45631;51.962;5.974;2023-12-20T07:53:19;101246.78;;;5.45;100.00
59757;BME280;45631;51.962;5.974;2023-12-20T07:55:47;101240.69;;;5.46;100.00
59757;BME280;45631;51.962;5.974;2023-12-20T07:58:15;101251.06;;;5.47;100.00
59757;BME280;45631;51.962;5.974;2023-12-20T08:00:47;101257.16;;;5.46;100.00
59757;BME280;45631;51.962;5.974;2023-12-20T08:03:16;101257.97;;;5.48;100.00
59757;BME280;45631;51.962;5.974;2023-12-20T08:05:45;101270.09;;;5.49;100.00
59757;BME280;45631;51.962;5.974;2023-12-20T08:08:14;101270.06;;;5.51;100.00
59757;BME280;45631;51.962;5.974;2023-12-20T08:10:42;101264.66;;;5.55;100.00
59757;BME280;45631;51.962;5.974;2023-12-20T08:13:10;101268.06;;;5.57;100.00
59757;BME280;45631;51.962;5.974;2023-12-20T08:15:38;101265.50;;;5.56;100.00
59757;BME280;45631;51.962;5.974;2023-12-20T08:18:06;101265.44;;;5.57;100.00
59757;BME280;45631;51.962;5.974;2023-12-20T08:20:34;101266.25;;;5.59;100.00
59757;BME280;45631;51.962;5.974;2023-12-20T08:23:13;101272.38;;;5.58;100.00
59757;BME280;45631;51.962;5.974;2023-12-20T08:25:41;101270.56;;;5.61;100.00
59757;BME280;45631;51.962;5.974;2023-12-20T08:28:09;101266.19;;;5.61;100.00
59757;BME280;45631;51.962;5.974;2023-12-20T08:30:38;101264.41;;;5.62;100.00
59757;BME280;45631;51.962;5.974;2023-12-20T08:33:06;101254.78;;;5.64;100.00
59757;BME280;45631;51.962;5.974;2023-12-20T08:35:38;101253.00;;;5.64;100.00
59757;BME280;45631;51.962;5.974;2023-12-20T08:38:07;101247.72;;;5.66;100.00
59757;BME280;45631;51.962;5.974;2023-12-20T08:40:38;101244.16;;;5.68;100.00
59757;BME280;45631;51.962;5.974;2023-12-20T08:43:06;101248.41;;;5.71;100.00
59757;BME280;45631;51.962;5.974;2023-12-20T08:45:34;101245.72;;;5.74;100.00
59757;BME280;45631;51.962;5.974;2023-12-20T08:48:02;101246.56;;;5.74;100.00
59757;BME280;45631;51.962;5.974;2023-12-20T08:50:35;101240.38;;;5.77;100.00
59757;BME280;45631;51.962;5.974;2023-12-20T08:53:03;101237.75;;;5.77;100.00
59757;BME280;45631;51.962;5.974;2023-12-20T08:55:32;101231.63;;;5.78;100.00
59757;BME280;45631;51.962;5.974;2023-12-20T08:58:02;101227.94;;;5.84;100.00
59757;BME280;45631;51.962;5.974;2023-12-20T09:00:30;101226.97;;;5.86;100.00
59757;BME280;45631;51.962;5.974;2023-12-20T09:02:58;101226.03;;;5.87;100.00
59757;BME280;45631;51.962;5.974;2023-12-20T09:05:27;101229.44;;;5.89;100.00
59757;BME280;45631;51.962;5.974;2023-12-20T09:07:55;101227.59;;;5.91;100.00
59757;BME280;45631;51.962;5.974;2023-12-20T09:10:23;101228.56;;;5.89;100.00
59757;BME280;45631;51.962;5.974;2023-12-20T09:12:52;101233.91;;;5.86;100.00
59757;BME280;45631;51.962;5.974;2023-12-20T09:15:25;101232.19;;;5.86;100.00
59757;BME280;45631;51.962;5.974;2023-12-20T09:17:54;101226.97;;;5.86;100.00
59757;BME280;45631;51.962;5.974;2023-12-20T09:20:22;101232.06;;;5.89;100.00
59757;BME280;45631;51.962;5.974;2023-12-20T09:22:50;101235.44;;;5.91;100.00
59757;BME280;45631;51.962;5.974;2023-12-20T09:25:19;101232.81;;;5.91;100.00
59757;BME280;45631;51.962;5.974;2023-12-20T09:27:49;101239.94;;;5.88;100.00
59757;BME280;45631;51.962;5.974;2023-12-20T09:30:17;101236.41;;;5.89;100.00
59757;BME280;45631;51.962;5.974;2023-12-20T09:32:54;101229.44;;;5.89;100.00
59757;BME280;45631;51.962;5.974;2023-12-20T09:35:23;101231.25;;;5.87;100.00
59757;BME280;45631;51.962;5.974;2023-12-20T09:37:53;101231.19;;;5.89;100.00
59757;BME280;45631;51.962;5.974;2023-12-20T09:40:22;101239.19;;;5.84;100.00
59757;BME280;45631;51.962;5.974;2023-12-20T09:42:56;101240.91;;;5.85;100.00
59757;BME280;45631;51.962;5.974;2023-12-20T09:45:25;101232.41;;;5.80;100.00
59757;BME280;45631;51.962;5.974;2023-12-20T09:47:55;101235.91;;;5.79;100.00
59757;BME280;45631;51.962;5.974;2023-12-20T09:50:26;101231.50;;;5.81;100.00
59757;BME280;45631;51.962;5.974;2023-12-20T09:52:57;101235.91;;;5.79;100.00
59757;BME280;45631;51.962;5.974;2023-12-20T09:55:27;101235.81;;;5.82;100.00
59757;BME280;45631;51.962;5.974;2023-12-20T09:57:56;101235.00;;;5.80;100.00
59757;BME280;45631;51.962;5.974;2023-12-20T10:00:25;101232.41;;;5.80;100.00
59757;BME280;45631;51.962;5.974;2023-12-20T10:02:57;101247.22;;;5.80;100.00
59757;BME280;45631;51.962;5.974;2023-12-20T10:05:29;101249.72;;;5.83;100.00
59757;BME280;45631;51.962;5.974;2023-12-20T10:07:59;101241.03;;;5.82;100.00
59757;BME280;45631;51.962;5.974;2023-12-20T10:10:29;101255.00;;;5.81;100.00
59757;BME280;45631;51.962;5.974;2023-12-20T10:13:11;101260.09;;;5.84;100.00
59757;BME280;45631;51.962;5.974;2023-12-20T10:15:41;101257.41;;;5.86;100.00
59757;BME280;45631;51.962;5.974;2023-12-20T10:18:11;101246.00;;;5.88;100.00
59757;BME280;45631;51.962;5.974;2023-12-20T10:20:41;101251.09;;;5.91;100.00
59757;BME280;45631;51.962;5.974;2023-12-20T10:23:11;101256.56;;;5.85;100.00
59757;BME280;45631;51.962;5.974;2023-12-20T10:25:40;101251.28;;;5.87;100.00
59757;BME280;45631;51.962;5.974;2023-12-20T10:28:10;101258.09;;;5.91;100.00
59757;BME280;45631;51.962;5.974;2023-12-20T10:30:40;101263.25;;;5.92;100.00
59757;BME280;45631;51.962;5.974;2023-12-20T10:33:10;101258.03;;;5.92;100.00
59757;BME280;45631;51.962;5.974;2023-12-20T10:35:39;101260.63;;;5.92;100.00
59757;BME280;45631;51.962;5.974;2023-12-20T10:38:12;101258.22;;;5.88;100.00
59757;BME280;45631;51.962;5.974;2023-12-20T10:40:41;101247.59;;;5.92;100.00
59757;BME280;45631;51.962;5.974;2023-12-20T10:43:10;101245.78;;;5.95;100.00
59757;BME280;45631;51.962;5.974;2023-12-20T10:45:39;101241.34;;;5.97;100.00
59757;BME280;45631;51.962;5.974;2023-12-20T10:48:11;101235.34;;;5.95;100.00
59757;BME280;45631;51.962;5.974;2023-12-20T10:50:41;101226.56;;;5.96;100.00
59757;BME280;45631;51.962;5.974;2023-12-20T10:53:09;101232.56;;;5.99;100.00
59757;BME280;45631;51.962;5.974;2023-12-20T10:55:39;101223.94;;;5.97;100.00
59757;BME280;45631;51.962;5.974;2023-12-20T10:58:08;101228.34;;;5.95;100.00
59757;BME280;45631;51.962;5.974;2023-12-20T11:00:39;101228.28;;;5.97;100.00
59757;BME280;45631;51.962;5.974;2023-12-20T11:03:11;101226.50;;;5.99;100.00
59757;BME280;45631;51.962;5.974;2023-12-20T11:05:46;101219.44;;;6.01;100.00
59757;BME280;45631;51.962;5.974;2023-12-20T11:08:22;101218.59;;;6.00;100.00
59757;BME280;45631;51.962;5.974;2023-12-20T11:10:59;101217.63;;;6.03;100.00
59757;BME280;45631;51.962;5.974;2023-12-20T11:13:34;101218.47;;;6.03;100.00
59757;BME280;45631;51.962;5.974;2023-12-20T11:16:04;101212.22;;;6.07;100.00
59757;BME280;45631;51.962;5.974;2023-12-20T11:18:33;101213.84;;;6.10;100.00
59757;BME280;45631;51.962;5.974;2023-12-20T11:21:04;101199.91;;;6.11;100.00
59757;BME280;45631;51.962;5.974;2023-12-20T11:23:33;101200.59;;;6.15;100.00
59757;BME280;45631;51.962;5.974;2023-12-20T11:26:02;101200.66;;;6.13;100.00
59757;BME280;45631;51.962;5.974;2023-12-20T11:28:31;101197.22;;;6.13;100.00
59757;BME280;45631;51.962;5.974;2023-12-20T11:31:01;101185.78;;;6.15;100.00
59757;BME280;45631;51.962;5.974;2023-12-20T11:33:32;101182.16;;;6.19;100.00
59757;BME280;45631;51.962;5.974;2023-12-20T11:36:14;101185.44;;;6.24;100.00
59757;BME280;45631;51.962;5.974;2023-12-20T11:38:54;101179.25;;;6.25;100.00
59757;BME280;45631;51.962;5.974;2023-12-20T11:41:25;101180.72;;;6.33;100.00
59757;BME280;45631;51.962;5.974;2023-12-20T11:43:53;101181.44;;;6.36;100.00
59757;BME280;45631;51.962;5.974;2023-12-20T11:46:23;101164.78;;;6.39;100.00
59757;BME280;45631;51.962;5.974;2023-12-20T11:48:51;101170.66;;;6.44;100.00
59757;BME280;45631;51.962;5.974;2023-12-20T11:51:21;101176.56;;;6.49;100.00
59757;BME280;45631;51.962;5.974;2023-12-20T11:53:51;101180.84;;;6.50;100.00
59757;BME280;45631;51.962;5.974;2023-12-20T11:56:20;101180.72;;;6.53;100.00
59757;BME280;45631;51.962;5.974;2023-12-20T11:58:51;101186.03;;;6.52;100.00
59757;BME280;45631;51.962;5.974;2023-12-20T12:01:20;101181.63;;;6.52;100.00
59757;BME280;45631;51.962;5.974;2023-12-20T12:03:48;101176.13;;;6.58;100.00
59757;BME280;45631;51.962;5.974;2023-12-20T12:06:31;101174.19;;;6.64;100.00
59757;BME280;45631;51.962;5.974;2023-12-20T12:09:00;101173.34;;;6.63;100.00
59757;BME280;45631;51.962;5.974;2023-12-20T12:11:29;101168.88;;;6.65;100.00
59757;BME280;45631;51.962;5.974;2023-12-20T12:13:57;101158.41;;;6.65;100.00
59757;BME280;45631;51.962;5.974;2023-12-20T12:16:25;101156.03;;;6.60;100.00
59757;BME280;45631;51.962;5.974;2023-12-20T12:18:57;101161.09;;;6.64;100.00
59757;BME280;45631;51.962;5.974;2023-12-20T12:21:25;101156.81;;;6.63;100.00
59757;BME280;45631;51.962;5.974;2023-12-20T12:24:08;101149.75;;;6.65;100.00
59757;BME280;45631;51.962;5.974;2023-12-20T12:26:37;101153.19;;;6.65;100.00
59757;BME280;45631;51.962;5.974;2023-12-20T12:29:07;101153.09;;;6.68;100.00
59757;BME280;45631;51.962;5.974;2023-12-20T12:31:36;101154.66;;;6.72;100.00
59757;BME280;45631;51.962;5.974;2023-12-20T12:34:04;101155.41;;;6.74;100.00
59757;BME280;45631;51.962;5.974;2023-12-20T12:36:33;101151.81;;;6.77;100.00
59757;BME280;45631;51.962;5.974;2023-12-20T12:39:02;101146.44;;;6.80;100.00
59757;BME280;45631;51.962;5.974;2023-12-20T12:41:33;101130.72;;;6.82;100.00
59757;BME280;45631;51.962;5.974;2023-12-20T12:44:01;101126.25;;;6.84;100.00
59757;BME280;45631;51.962;5.974;2023-12-20T12:46:43;101114.97;;;6.83;100.00
59757;BME280;45631;51.962;5.974;2023-12-20T12:49:11;101113.03;;;6.87;100.00
59757;BME280;45631;51.962;5.974;2023-12-20T12:51:39;101106.06;;;6.87;100.00
59757;BME280;45631;51.962;5.974;2023-12-20T12:54:08;101114.47;;;6.94;100.00
59757;BME280;45631;51.962;5.974;2023-12-20T12:56:38;101109.34;;;6.91;100.00
59757;BME280;45631;51.962;5.974;2023-12-20T12:59:06;101106.88;;;6.88;100.00
59757;BME280;45631;51.962;5.974;2023-12-20T13:01:34;101107.72;;;6.88;100.00